sensor_id;sensor_type;location;lat;lon;timestamp;temperature;humidity
85036;DHT22;75357;49.780;9.448;2024-03-08T00:00:15;4.00;63.10
85036;DHT22;75357;49.780;9.448;2024-03-08T00:02:47;4.00;62.90
85036;DHT22;75357;49.780;9.448;2024-03-08T00:05:19;4.00;63.10
85036;DHT22;75357;49.780;9.448;2024-03-08T00:07:48;4.00;62.90
85036;DHT22;75357;49.780;9.448;2024-03-08T00:10:18;4.10;63.00
85036;DHT22;75357;49.780;9.448;2024-03-08T00:12:50;4.10;62.80
85036;DHT22;75357;49.780;9.448;2024-03-08T00:15:20;4.10;63.00
85036;DHT22;75357;49.780;9.448;2024-03-08T00:17:50;4.10;62.80
85036;DHT22;75357;49.780;9.448;2024-03-08T00:20:20;4.10;63.00
85036;DHT22;75357;49.780;9.448;2024-03-08T00:22:48;4.10;63.60
85036;DHT22;75357;49.780;9.448;2024-03-08T00:25:18;4.10;64.10
85036;DHT22;75357;49.780;9.448;2024-03-08T00:27:46;4.00;64.40
85036;DHT22;75357;49.780;9.448;2024-03-08T00:30:16;4.10;64.00
85036;DHT22;75357;49.780;9.448;2024-03-08T00:32:45;4.10;63.90
85036;DHT22;75357;49.780;9.448;2024-03-08T00:35:13;4.10;63.80
85036;DHT22;75357;49.780;9.448;2024-03-08T00:37:43;4.10;63.60
85036;DHT22;75357;49.780;9.448;2024-03-08T00:40:14;4.20;63.70
85036;DHT22;75357;49.780;9.448;2024-03-08T00:42:42;4.20;63.40
85036;DHT22;75357;49.780;9.448;2024-03-08T00:45:11;4.30;63.00
85036;DHT22;75357;49.780;9.448;2024-03-08T00:47:40;4.30;62.90
85036;DHT22;75357;49.780;9.448;2024-03-08T00:50:11;4.30;62.90
85036;DHT22;75357;49.780;9.448;2024-03-08T00:52:40;4.20;63.00
85036;DHT22;75357;49.780;9.448;2024-03-08T00:55:10;4.10;63.40
85036;DHT22;75357;49.780;9.448;2024-03-08T00:57:39;4.10;63.90
85036;DHT22;75357;49.780;9.448;2024-03-08T01:00:08;3.90;64.00
85036;DHT22;75357;49.780;9.448;2024-03-08T01:02:39;3.80;64.30
85036;DHT22;75357;49.780;9.448;2024-03-08T01:05:08;3.60;64.60
85036;DHT22;75357;49.780;9.448;2024-03-08T01:07:37;3.60;64.60
85036;DHT22;75357;49.780;9.448;2024-03-08T01:10:06;3.50;64.70
85036;DHT22;75357;49.780;9.448;2024-03-08T01:12:38;3.50;64.80
85036;DHT22;75357;49.780;9.448;2024-03-08T01:15:07;3.40;65.40
85036;DHT22;75357;49.780;9.448;2024-03-08T01:17:36;3.30;65.80
85036;DHT22;75357;49.780;9.448;2024-03-08T01:20:06;3.20;66.00
85036;DHT22;75357;49.780;9.448;2024-03-08T01:22:34;3.20;66.20
85036;DHT22;75357;49.780;9.448;2024-03-08T01:25:03;3.10;66.60
85036;DHT22;75357;49.780;9.448;2024-03-08T01:27:32;3.00;67.20
85036;DHT22;75357;49.780;9.448;2024-03-08T01:30:04;2.90;67.20
85036;DHT22;75357;49.780;9.448;2024-03-08T01:32:33;2.80;67.60
85036;DHT22;75357;49.780;9.448;2024-03-08T01:35:01;2.80;68.10
85036;DHT22;75357;49.780;9.448;2024-03-08T01:37:30;2.70;68.30
85036;DHT22;75357;49.780;9.448;2024-03-08T01:39:58;2.70;68.60
85036;DHT22;75357;49.780;9.448;2024-03-08T01:42:26;2.70;68.90
85036;DHT22;75357;49.780;9.448;2024-03-08T01:44:55;2.70;68.90
85036;DHT22;75357;49.780;9.448;2024-03-08T01:47:25;2.60;69.00
85036;DHT22;75357;49.780;9.448;2024-03-08T01:49:54;2.50;69.30
85036;DHT22;75357;49.780;9.448;2024-03-08T01:52:22;2.40;69.70
85036;DHT22;75357;49.780;9.448;2024-03-08T01:54:52;2.40;70.30
85036;DHT22;75357;49.780;9.448;2024-03-08T01:57:21;2.40;70.60
85036;DHT22;75357;49.780;9.448;2024-03-08T01:59:49;2.30;70.60
85036;DHT22;75357;49.780;9.448;2024-03-08T02:02:22;2.30;71.00
85036;DHT22;75357;49.780;9.448;2024-03-08T02:04:51;2.20;71.20
85036;DHT22;75357;49.780;9.448;2024-03-08T02:07:20;2.10;71.60
85036;DHT22;75357;49.780;9.448;2024-03-08T02:09:49;2.10;72.20
85036;DHT22;75357;49.780;9.448;2024-03-08T02:12:18;2.10;72.30
85036;DHT22;75357;49.780;9.448;2024-03-08T02:14:48;2.00;72.60
85036;DHT22;75357;49.780;9.448;2024-03-08T02:17:16;2.00;72.80
85036;DHT22;75357;49.780;9.448;2024-03-08T02:19:44;1.90;72.70
85036;DHT22;75357;49.780;9.448;2024-03-08T02:22:15;1.90;73.20
85036;DHT22;75357;49.780;9.448;2024-03-08T02:24:44;1.90;73.40
85036;DHT22;75357;49.780;9.448;2024-03-08T02:27:12;1.80;73.20
85036;DHT22;75357;49.780;9.448;2024-03-08T02:29:42;1.80;73.70
85036;DHT22;75357;49.780;9.448;2024-03-08T02:32:11;1.80;73.80
85036;DHT22;75357;49.780;9.448;2024-03-08T02:34:40;1.70;74.00
85036;DHT22;75357;49.780;9.448;2024-03-08T02:37:08;1.80;74.10
85036;DHT22;75357;49.780;9.448;2024-03-08T02:39:38;1.60;74.40
85036;DHT22;75357;49.780;9.448;2024-03-08T02:42:06;1.60;74.70
85036;DHT22;75357;49.780;9.448;2024-03-08T02:44:34;1.60;74.80
85036;DHT22;75357;49.780;9.448;2024-03-08T02:47:03;1.50;75.00
85036;DHT22;75357;49.780;9.448;2024-03-08T02:49:32;1.40;75.40
85036;DHT22;75357;49.780;9.448;2024-03-08T02:52:01;1.40;75.20
85036;DHT22;75357;49.780;9.448;2024-03-08T02:54:29;1.40;76.10
85036;DHT22;75357;49.780;9.448;2024-03-08T02:56:59;1.30;76.40
85036;DHT22;75357;49.780;9.448;2024-03-08T02:59:27;1.30;76.30
85036;DHT22;75357;49.780;9.448;2024-03-08T03:01:56;1.30;76.30
85036;DHT22;75357;49.780;9.448;2024-03-08T03:04:24;1.30;76.70
85036;DHT22;75357;49.780;9.448;2024-03-08T03:06:52;1.20;76.50
85036;DHT22;75357;49.780;9.448;2024-03-08T03:09:21;1.20;76.70
85036;DHT22;75357;49.780;9.448;2024-03-08T03:11:54;1.20;76.80
85036;DHT22;75357;49.780;9.448;2024-03-08T03:14:24;1.10;77.00
85036;DHT22;75357;49.780;9.448;2024-03-08T03:16:54;1.10;77.40
85036;DHT22;75357;49.780;9.448;2024-03-08T03:19:22;1.10;77.50
85036;DHT22;75357;49.780;9.448;2024-03-08T03:21:50;1.10;77.70
85036;DHT22;75357;49.780;9.448;2024-03-08T03:24:19;1.10;77.70
85036;DHT22;75357;49.780;9.448;2024-03-08T03:26:48;1.00;77.90
85036;DHT22;75357;49.780;9.448;2024-03-08T03:29:16;1.10;77.90
85036;DHT22;75357;49.780;9.448;2024-03-08T03:31:46;1.10;77.60
85036;DHT22;75357;49.780;9.448;2024-03-08T03:34:14;1.10;77.90
85036;DHT22;75357;49.780;9.448;2024-03-08T03:36:43;1.00;78.20
85036;DHT22;75357;49.780;9.448;2024-03-08T03:39:14;1.00;78.50
85036;DHT22;75357;49.780;9.448;2024-03-08T03:41:43;1.00;78.90
85036;DHT22;75357;49.780;9.448;2024-03-08T03:44:13;0.90;78.70
85036;DHT22;75357;49.780;9.448;2024-03-08T03:46:42;1.00;78.60
85036;DHT22;75357;49.780;9.448;2024-03-08T03:49:13;1.00;78.70
85036;DHT22;75357;49.780;9.448;2024-03-08T03:51:41;1.00;78.70
85036;DHT22;75357;49.780;9.448;2024-03-08T03:54:09;1.00;78.50
85036;DHT22;75357;49.780;9.448;2024-03-08T03:56:38;1.10;78.50
85036;DHT22;75357;49.780;9.448;2024-03-08T03:59:07;1.00;78.40
85036;DHT22;75357;49.780;9.448;2024-03-08T04:01:36;0.90;78.50
85036;DHT22;75357;49.780;9.448;2024-03-08T04:04:05;0.90;79.10
85036;DHT22;75357;49.780;9.448;2024-03-08T04:06:35;0.80;79.30
85036;DHT22;75357;49.780;9.448;2024-03-08T04:09:03;0.80;79.40
85036;DHT22;75357;49.780;9.448;2024-03-08T04:11:32;0.80;79.50
85036;DHT22;75357;49.780;9.448;2024-03-08T04:14:01;0.80;79.50
85036;DHT22;75357;49.780;9.448;2024-03-08T04:16:29;0.80;79.50
85036;DHT22;75357;49.780;9.448;2024-03-08T04:18:57;0.80;79.60
85036;DHT22;75357;49.780;9.448;2024-03-08T04:21:25;0.80;79.60
85036;DHT22;75357;49.780;9.448;2024-03-08T04:23:55;0.90;79.70
85036;DHT22;75357;49.780;9.448;2024-03-08T04:26:23;0.80;79.60
85036;DHT22;75357;49.780;9.448;2024-03-08T04:28:53;0.80;79.30
85036;DHT22;75357;49.780;9.448;2024-03-08T04:31:21;0.80;79.40
85036;DHT22;75357;49.780;9.448;2024-03-08T04:33:49;0.80;79.90
85036;DHT22;75357;49.780;9.448;2024-03-08T04:36:18;0.90;79.50
85036;DHT22;75357;49.780;9.448;2024-03-08T04:38:46;0.80;79.60
85036;DHT22;75357;49.780;9.448;2024-03-08T04:41:16;0.70;79.80
85036;DHT22;75357;49.780;9.448;2024-03-08T04:43:45;0.70;79.70
85036;DHT22;75357;49.780;9.448;2024-03-08T04:46:13;0.70;79.50
85036;DHT22;75357;49.780;9.448;2024-03-08T04:48:41;0.60;80.10
85036;DHT22;75357;49.780;9.448;2024-03-08T04:51:10;0.50;80.10
85036;DHT22;75357;49.780;9.448;2024-03-08T04:53:39;0.50;81.00
85036;DHT22;75357;49.780;9.448;2024-03-08T04:56:07;0.50;81.10
85036;DHT22;75357;49.780;9.448;2024-03-08T04:58:37;0.60;81.00
85036;DHT22;75357;49.780;9.448;2024-03-08T05:01:05;0.60;80.90
85036;DHT22;75357;49.780;9.448;2024-03-08T05:03:37;0.60;80.50
85036;DHT22;75357;49.780;9.448;2024-03-08T05:06:06;0.50;80.90
85036;DHT22;75357;49.780;9.448;2024-03-08T05:08:35;0.50;80.90
85036;DHT22;75357;49.780;9.448;2024-03-08T05:11:03;0.50;81.10
85036;DHT22;75357;49.780;9.448;2024-03-08T05:13:34;0.50;81.50
85036;DHT22;75357;49.780;9.448;2024-03-08T05:16:04;0.70;81.00
85036;DHT22;75357;49.780;9.448;2024-03-08T05:18:34;0.70;80.40
85036;DHT22;75357;49.780;9.448;2024-03-08T05:21:03;0.70;81.00
85036;DHT22;75357;49.780;9.448;2024-03-08T05:23:31;0.70;80.50
85036;DHT22;75357;49.780;9.448;2024-03-08T05:26:01;0.60;80.20
85036;DHT22;75357;49.780;9.448;2024-03-08T05:28:33;0.50;80.70
85036;DHT22;75357;49.780;9.448;2024-03-08T05:31:01;0.50;81.10
85036;DHT22;75357;49.780;9.448;2024-03-08T05:33:31;0.50;81.30
85036;DHT22;75357;49.780;9.448;2024-03-08T05:36:01;0.60;81.40
85036;DHT22;75357;49.780;9.448;2024-03-08T05:38:30;0.60;81.40
85036;DHT22;75357;49.780;9.448;2024-03-08T05:41:01;0.60;81.40
85036;DHT22;75357;49.780;9.448;2024-03-08T05:43:29;0.60;81.40
85036;DHT22;75357;49.780;9.448;2024-03-08T05:45:58;0.60;81.00
85036;DHT22;75357;49.780;9.448;2024-03-08T05:48:26;0.60;81.40
85036;DHT22;75357;49.780;9.448;2024-03-08T05:50:56;0.70;81.10
85036;DHT22;75357;49.780;9.448;2024-03-08T05:53:24;0.70;81.00
85036;DHT22;75357;49.780;9.448;2024-03-08T05:55:56;0.50;80.80
85036;DHT22;75357;49.780;9.448;2024-03-08T05:58:24;0.50;80.60
85036;DHT22;75357;49.780;9.448;2024-03-08T06:00:53;0.50;81.70
85036;DHT22;75357;49.780;9.448;2024-03-08T06:03:21;0.50;81.60
85036;DHT22;75357;49.780;9.448;2024-03-08T06:05:50;0.60;81.40
85036;DHT22;75357;49.780;9.448;2024-03-08T06:08:20;0.60;81.40
85036;DHT22;75357;49.780;9.448;2024-03-08T06:10:48;0.70;81.20
85036;DHT22;75357;49.780;9.448;2024-03-08T06:13:20;0.60;81.00
85036;DHT22;75357;49.780;9.448;2024-03-08T06:15:48;0.60;81.00
85036;DHT22;75357;49.780;9.448;2024-03-08T06:18:17;0.60;81.20
85036;DHT22;75357;49.780;9.448;2024-03-08T06:20:45;0.60;81.50
85036;DHT22;75357;49.780;9.448;2024-03-08T06:23:13;0.60;81.10
85036;DHT22;75357;49.780;9.448;2024-03-08T06:25:49;0.60;81.40
85036;DHT22;75357;49.780;9.448;2024-03-08T06:28:17;0.70;81.50
85036;DHT22;75357;49.780;9.448;2024-03-08T06:30:48;0.80;81.00
85036;DHT22;75357;49.780;9.448;2024-03-08T06:33:18;0.80;80.50
85036;DHT22;75357;49.780;9.448;2024-03-08T06:35:46;0.90;80.30
85036;DHT22;75357;49.780;9.448;2024-03-08T06:38:14;0.90;80.50
85036;DHT22;75357;49.780;9.448;2024-03-08T06:40:44;0.90;80.40
85036;DHT22;75357;49.780;9.448;2024-03-08T06:43:16;1.00;80.40
85036;DHT22;75357;49.780;9.448;2024-03-08T06:45:45;1.00;80.20
85036;DHT22;75357;49.780;9.448;2024-03-08T06:48:16;1.00;80.10
85036;DHT22;75357;49.780;9.448;2024-03-08T06:50:45;1.10;80.20
85036;DHT22;75357;49.780;9.448;2024-03-08T06:53:14;1.10;80.10
85036;DHT22;75357;49.780;9.448;2024-03-08T06:55:45;1.30;80.10
85036;DHT22;75357;49.780;9.448;2024-03-08T06:58:17;1.40;79.70
85036;DHT22;75357;49.780;9.448;2024-03-08T07:00:46;1.40;79.40
85036;DHT22;75357;49.780;9.448;2024-03-08T07:03:19;1.60;79.30
85036;DHT22;75357;49.780;9.448;2024-03-08T07:05:49;1.70;79.00
85036;DHT22;75357;49.780;9.448;2024-03-08T07:08:17;2.00;78.50
85036;DHT22;75357;49.780;9.448;2024-03-08T07:10:45;2.10;77.90
85036;DHT22;75357;49.780;9.448;2024-03-08T07:13:13;2.30;77.50
85036;DHT22;75357;49.780;9.448;2024-03-08T07:15:43;2.30;77.30
85036;DHT22;75357;49.780;9.448;2024-03-08T07:18:11;2.40;76.90
85036;DHT22;75357;49.780;9.448;2024-03-08T07:20:42;2.60;76.70
85036;DHT22;75357;49.780;9.448;2024-03-08T07:23:10;2.60;76.40
85036;DHT22;75357;49.780;9.448;2024-03-08T07:25:59;2.80;76.20
85036;DHT22;75357;49.780;9.448;2024-03-08T07:28:28;2.90;75.20
85036;DHT22;75357;49.780;9.448;2024-03-08T07:30:59;3.00;75.00
85036;DHT22;75357;49.780;9.448;2024-03-08T07:33:44;3.10;73.90
85036;DHT22;75357;49.780;9.448;2024-03-08T07:36:12;3.10;73.90
85036;DHT22;75357;49.780;9.448;2024-03-08T07:38:41;3.20;74.00
85036;DHT22;75357;49.780;9.448;2024-03-08T07:41:10;3.30;73.80
85036;DHT22;75357;49.780;9.448;2024-03-08T07:43:41;3.50;73.40
85036;DHT22;75357;49.780;9.448;2024-03-08T07:46:11;3.60;72.90
85036;DHT22;75357;49.780;9.448;2024-03-08T07:48:40;3.70;72.50
85036;DHT22;75357;49.780;9.448;2024-03-08T07:51:09;3.60;71.90
85036;DHT22;75357;49.780;9.448;2024-03-08T07:53:39;3.60;72.20
85036;DHT22;75357;49.780;9.448;2024-03-08T07:56:08;3.70;72.60
85036;DHT22;75357;49.780;9.448;2024-03-08T07:58:39;3.70;72.40
85036;DHT22;75357;49.780;9.448;2024-03-08T08:01:16;3.70;72.30
85036;DHT22;75357;49.780;9.448;2024-03-08T08:03:45;3.70;72.60
85036;DHT22;75357;49.780;9.448;2024-03-08T08:06:13;3.70;72.50
85036;DHT22;75357;49.780;9.448;2024-03-08T08:08:43;3.90;72.50
85036;DHT22;75357;49.780;9.448;2024-03-08T08:11:11;3.80;72.00
85036;DHT22;75357;49.780;9.448;2024-03-08T08:13:39;4.00;71.70
85036;DHT22;75357;49.780;9.448;2024-03-08T08:16:10;3.90;71.60
85036;DHT22;75357;49.780;9.448;2024-03-08T08:18:41;4.10;71.60
85036;DHT22;75357;49.780;9.448;2024-03-08T08:21:10;4.30;71.10
85036;DHT22;75357;49.780;9.448;2024-03-08T08:23:39;4.30;70.60
85036;DHT22;75357;49.780;9.448;2024-03-08T08:26:07;4.60;70.80
85036;DHT22;75357;49.780;9.448;2024-03-08T08:28:36;4.70;69.50
85036;DHT22;75357;49.780;9.448;2024-03-08T08:31:06;4.80;69.80
85036;DHT22;75357;49.780;9.448;2024-03-08T08:33:35;4.90;69.40
85036;DHT22;75357;49.780;9.448;2024-03-08T08:36:06;5.20;69.60
85036;DHT22;75357;49.780;9.448;2024-03-08T08:38:34;5.00;68.00
85036;DHT22;75357;49.780;9.448;2024-03-08T08:41:03;5.10;68.00
85036;DHT22;75357;49.780;9.448;2024-03-08T08:43:33;5.30;68.30
85036;DHT22;75357;49.780;9.448;2024-03-08T08:46:06;5.40;67.80
85036;DHT22;75357;49.780;9.448;2024-03-08T08:48:34;5.50;68.10
85036;DHT22;75357;49.780;9.448;2024-03-08T08:51:02;5.60;67.20
85036;DHT22;75357;49.780;9.448;2024-03-08T08:53:34;5.50;66.90
85036;DHT22;75357;49.780;9.448;2024-03-08T08:56:04;5.60;67.60
85036;DHT22;75357;49.780;9.448;2024-03-08T08:58:37;5.80;67.10
85036;DHT22;75357;49.780;9.448;2024-03-08T09:01:05;5.90;66.70
85036;DHT22;75357;49.780;9.448;2024-03-08T09:03:34;6.00;66.00
85036;DHT22;75357;49.780;9.448;2024-03-08T09:06:04;6.10;65.40
85036;DHT22;75357;49.780;9.448;2024-03-08T09:08:38;6.10;65.10
85036;DHT22;75357;49.780;9.448;2024-03-08T09:11:06;6.30;64.90
85036;DHT22;75357;49.780;9.448;2024-03-08T09:13:34;6.20;65.20
85036;DHT22;75357;49.780;9.448;2024-03-08T09:16:04;6.40;65.20
85036;DHT22;75357;49.780;9.448;2024-03-08T09:18:33;6.30;65.20
85036;DHT22;75357;49.780;9.448;2024-03-08T09:21:02;6.30;64.90
85036;DHT22;75357;49.780;9.448;2024-03-08T09:23:30;6.40;64.70
85036;DHT22;75357;49.780;9.448;2024-03-08T09:26:00;6.60;64.30
85036;DHT22;75357;49.780;9.448;2024-03-08T09:28:29;6.80;63.40
85036;DHT22;75357;49.780;9.448;2024-03-08T09:31:00;6.90;63.60
85036;DHT22;75357;49.780;9.448;2024-03-08T09:33:28;6.90;63.80
85036;DHT22;75357;49.780;9.448;2024-03-08T09:35:58;6.90;63.30
85036;DHT22;75357;49.780;9.448;2024-03-08T09:38:29;6.90;62.90
85036;DHT22;75357;49.780;9.448;2024-03-08T09:41:02;6.90;63.70
85036;DHT22;75357;49.780;9.448;2024-03-08T09:43:31;7.20;63.80
85036;DHT22;75357;49.780;9.448;2024-03-08T09:45:59;7.60;62.10
85036;DHT22;75357;49.780;9.448;2024-03-08T09:48:28;7.80;61.50
85036;DHT22;75357;49.780;9.448;2024-03-08T09:50:57;8.10;61.30
85036;DHT22;75357;49.780;9.448;2024-03-08T09:53:25;8.30;61.00
85036;DHT22;75357;49.780;9.448;2024-03-08T09:55:55;8.10;59.90
85036;DHT22;75357;49.780;9.448;2024-03-08T09:58:25;7.90;60.00
85036;DHT22;75357;49.780;9.448;2024-03-08T10:01:21;8.10;60.40
85036;DHT22;75357;49.780;9.448;2024-03-08T10:03:49;8.60;58.40
85036;DHT22;75357;49.780;9.448;2024-03-08T10:06:23;8.70;58.10
85036;DHT22;75357;49.780;9.448;2024-03-08T10:08:51;8.80;57.90
85036;DHT22;75357;49.780;9.448;2024-03-08T10:11:20;9.00;57.50
85036;DHT22;75357;49.780;9.448;2024-03-08T10:13:50;9.00;56.50
85036;DHT22;75357;49.780;9.448;2024-03-08T10:16:18;9.00;56.60
85036;DHT22;75357;49.780;9.448;2024-03-08T10:18:47;8.50;57.40
85036;DHT22;75357;49.780;9.448;2024-03-08T10:21:15;8.50;58.10
85036;DHT22;75357;49.780;9.448;2024-03-08T10:23:44;8.60;57.10
85036;DHT22;75357;49.780;9.448;2024-03-08T10:26:13;8.90;57.40
85036;DHT22;75357;49.780;9.448;2024-03-08T10:28:43;9.10;57.40
85036;DHT22;75357;49.780;9.448;2024-03-08T10:31:14;9.10;56.60
85036;DHT22;75357;49.780;9.448;2024-03-08T10:33:45;9.00;56.50
85036;DHT22;75357;49.780;9.448;2024-03-08T10:36:14;8.90;56.70
85036;DHT22;75357;49.780;9.448;2024-03-08T10:38:43;9.00;57.10
85036;DHT22;75357;49.780;9.448;2024-03-08T10:41:15;9.00;57.20
85036;DHT22;75357;49.780;9.448;2024-03-08T10:43:52;9.10;56.70
85036;DHT22;75357;49.780;9.448;2024-03-08T10:46:30;9.20;56.80
85036;DHT22;75357;49.780;9.448;2024-03-08T10:49:00;9.40;56.60
85036;DHT22;75357;49.780;9.448;2024-03-08T10:51:32;9.30;56.40
85036;DHT22;75357;49.780;9.448;2024-03-08T10:54:01;9.20;56.50
85036;DHT22;75357;49.780;9.448;2024-03-08T10:56:30;9.00;55.90
85036;DHT22;75357;49.780;9.448;2024-03-08T10:58:59;9.00;57.30
85036;DHT22;75357;49.780;9.448;2024-03-08T11:01:29;9.10;56.70
85036;DHT22;75357;49.780;9.448;2024-03-08T11:03:58;9.30;56.50
85036;DHT22;75357;49.780;9.448;2024-03-08T11:06:31;9.30;57.00
85036;DHT22;75357;49.780;9.448;2024-03-08T11:09:11;9.40;56.00
85036;DHT22;75357;49.780;9.448;2024-03-08T11:11:44;9.70;55.70
85036;DHT22;75357;49.780;9.448;2024-03-08T11:14:43;9.70;54.90
85036;DHT22;75357;49.780;9.448;2024-03-08T11:17:15;9.40;55.70
85036;DHT22;75357;49.780;9.448;2024-03-08T11:19:46;9.60;55.10
85036;DHT22;75357;49.780;9.448;2024-03-08T11:22:21;9.90;55.30
85036;DHT22;75357;49.780;9.448;2024-03-08T11:24:51;10.00;53.80
85036;DHT22;75357;49.780;9.448;2024-03-08T11:27:20;10.10;53.20
85036;DHT22;75357;49.780;9.448;2024-03-08T11:30:02;10.10;52.30
85036;DHT22;75357;49.780;9.448;2024-03-08T11:32:46;9.90;53.20
85036;DHT22;75357;49.780;9.448;2024-03-08T11:35:19;10.00;52.50
85036;DHT22;75357;49.780;9.448;2024-03-08T11:37:47;9.90;54.00
85036;DHT22;75357;49.780;9.448;2024-03-08T11:40:16;10.20;53.60
85036;DHT22;75357;49.780;9.448;2024-03-08T11:42:46;10.40;52.30
85036;DHT22;75357;49.780;9.448;2024-03-08T11:45:15;10.50;52.10
85036;DHT22;75357;49.780;9.448;2024-03-08T11:47:46;10.50;52.40
85036;DHT22;75357;49.780;9.448;2024-03-08T11:50:18;10.60;51.80
85036;DHT22;75357;49.780;9.448;2024-03-08T11:52:48;10.80;51.20
85036;DHT22;75357;49.780;9.448;2024-03-08T11:55:16;10.80;51.00
85036;DHT22;75357;49.780;9.448;2024-03-08T11:57:47;10.70;51.30
85036;DHT22;75357;49.780;9.448;2024-03-08T12:00:18;10.70;51.70
85036;DHT22;75357;49.780;9.448;2024-03-08T12:03:05;10.60;51.40
85036;DHT22;75357;49.780;9.448;2024-03-08T12:05:34;10.70;51.80
85036;DHT22;75357;49.780;9.448;2024-03-08T12:08:02;10.80;51.40
85036;DHT22;75357;49.780;9.448;2024-03-08T12:10:32;10.80;49.30
85036;DHT22;75357;49.780;9.448;2024-03-08T12:13:01;10.60;50.50
85036;DHT22;75357;49.780;9.448;2024-03-08T12:15:32;10.60;49.90
85036;DHT22;75357;49.780;9.448;2024-03-08T12:18:01;10.80;50.70
85036;DHT22;75357;49.780;9.448;2024-03-08T12:20:33;10.90;51.30
85036;DHT22;75357;49.780;9.448;2024-03-08T12:23:02;11.00;50.80
85036;DHT22;75357;49.780;9.448;2024-03-08T12:25:33;11.10;50.30
85036;DHT22;75357;49.780;9.448;2024-03-08T12:28:09;11.10;50.20
85036;DHT22;75357;49.780;9.448;2024-03-08T12:30:46;11.20;50.50
85036;DHT22;75357;49.780;9.448;2024-03-08T12:33:15;11.10;50.20
85036;DHT22;75357;49.780;9.448;2024-03-08T12:35:52;10.80;49.40
85036;DHT22;75357;49.780;9.448;2024-03-08T12:38:23;10.90;50.60
85036;DHT22;75357;49.780;9.448;2024-03-08T12:40:55;11.10;50.20
85036;DHT22;75357;49.780;9.448;2024-03-08T12:43:25;11.20;50.50
85036;DHT22;75357;49.780;9.448;2024-03-08T12:45:58;11.20;50.10
85036;DHT22;75357;49.780;9.448;2024-03-08T12:48:26;11.40;49.80
85036;DHT22;75357;49.780;9.448;2024-03-08T12:50:56;11.50;49.30
85036;DHT22;75357;49.780;9.448;2024-03-08T12:53:24;11.60;49.40
85036;DHT22;75357;49.780;9.448;2024-03-08T12:55:55;11.70;48.60
85036;DHT22;75357;49.780;9.448;2024-03-08T12:58:24;11.70;48.10
85036;DHT22;75357;49.780;9.448;2024-03-08T13:00:53;11.60;49.00
85036;DHT22;75357;49.780;9.448;2024-03-08T13:03:22;11.30;49.10
85036;DHT22;75357;49.780;9.448;2024-03-08T13:05:51;11.20;49.00
85036;DHT22;75357;49.780;9.448;2024-03-08T13:08:20;11.40;49.70
85036;DHT22;75357;49.780;9.448;2024-03-08T13:10:51;11.50;49.80
85036;DHT22;75357;49.780;9.448;2024-03-08T13:13:20;11.60;49.40
85036;DHT22;75357;49.780;9.448;2024-03-08T13:15:49;11.50;49.60
85036;DHT22;75357;49.780;9.448;2024-03-08T13:18:18;11.40;49.50
85036;DHT22;75357;49.780;9.448;2024-03-08T13:20:46;11.60;49.60
85036;DHT22;75357;49.780;9.448;2024-03-08T13:23:20;11.80;48.80
85036;DHT22;75357;49.780;9.448;2024-03-08T13:25:48;11.90;48.90
85036;DHT22;75357;49.780;9.448;2024-03-08T13:28:17;11.90;49.20
85036;DHT22;75357;49.780;9.448;2024-03-08T13:30:50;12.10;48.70
85036;DHT22;75357;49.780;9.448;2024-03-08T13:33:25;12.00;48.70
85036;DHT22;75357;49.780;9.448;2024-03-08T13:35:54;11.90;48.30
85036;DHT22;75357;49.780;9.448;2024-03-08T13:38:32;11.70;47.70
85036;DHT22;75357;49.780;9.448;2024-03-08T13:41:01;11.60;48.20
85036;DHT22;75357;49.780;9.448;2024-03-08T13:43:29;11.70;48.40
85036;DHT22;75357;49.780;9.448;2024-03-08T13:46:01;11.90;47.10
85036;DHT22;75357;49.780;9.448;2024-03-08T13:48:30;12.10;46.70
85036;DHT22;75357;49.780;9.448;2024-03-08T13:50:58;12.10;47.80
85036;DHT22;75357;49.780;9.448;2024-03-08T13:53:27;12.30;47.50
85036;DHT22;75357;49.780;9.448;2024-03-08T13:55:56;12.50;46.20
85036;DHT22;75357;49.780;9.448;2024-03-08T13:58:25;12.40;45.50
85036;DHT22;75357;49.780;9.448;2024-03-08T14:00:53;12.30;45.40
85036;DHT22;75357;49.780;9.448;2024-03-08T14:03:22;12.10;45.30
85036;DHT22;75357;49.780;9.448;2024-03-08T14:05:53;12.00;45.50
85036;DHT22;75357;49.780;9.448;2024-03-08T14:08:22;12.00;45.70
85036;DHT22;75357;49.780;9.448;2024-03-08T14:10:51;12.20;46.50
85036;DHT22;75357;49.780;9.448;2024-03-08T14:13:22;12.40;45.50
85036;DHT22;75357;49.780;9.448;2024-03-08T14:15:52;12.50;45.80
85036;DHT22;75357;49.780;9.448;2024-03-08T14:18:20;12.60;44.20
85036;DHT22;75357;49.780;9.448;2024-03-08T14:20:49;12.60;44.90
85036;DHT22;75357;49.780;9.448;2024-03-08T14:23:18;12.60;44.80
85036;DHT22;75357;49.780;9.448;2024-03-08T14:25:49;12.70;43.90
85036;DHT22;75357;49.780;9.448;2024-03-08T14:28:19;12.70;44.50
85036;DHT22;75357;49.780;9.448;2024-03-08T14:30:49;12.70;43.60
85036;DHT22;75357;49.780;9.448;2024-03-08T14:33:18;12.60;43.70
85036;DHT22;75357;49.780;9.448;2024-03-08T14:35:46;12.70;44.20
85036;DHT22;75357;49.780;9.448;2024-03-08T14:38:16;12.60;42.50
85036;DHT22;75357;49.780;9.448;2024-03-08T14:40:45;12.60;43.50
85036;DHT22;75357;49.780;9.448;2024-03-08T14:43:14;12.70;43.40
85036;DHT22;75357;49.780;9.448;2024-03-08T14:45:43;12.70;43.80
85036;DHT22;75357;49.780;9.448;2024-03-08T14:48:15;12.60;43.70
85036;DHT22;75357;49.780;9.448;2024-03-08T14:50:44;12.60;43.20
85036;DHT22;75357;49.780;9.448;2024-03-08T14:53:14;12.50;43.10
85036;DHT22;75357;49.780;9.448;2024-03-08T14:55:43;12.50;43.40
85036;DHT22;75357;49.780;9.448;2024-03-08T14:58:14;12.70;43.60
85036;DHT22;75357;49.780;9.448;2024-03-08T15:00:43;12.80;43.50
85036;DHT22;75357;49.780;9.448;2024-03-08T15:03:12;12.70;43.40
85036;DHT22;75357;49.780;9.448;2024-03-08T15:05:44;12.70;42.90
85036;DHT22;75357;49.780;9.448;2024-03-08T15:08:15;12.50;42.50
85036;DHT22;75357;49.780;9.448;2024-03-08T15:10:49;12.40;43.50
85036;DHT22;75357;49.780;9.448;2024-03-08T15:13:22;12.50;43.60
85036;DHT22;75357;49.780;9.448;2024-03-08T15:15:55;12.50;42.80
85036;DHT22;75357;49.780;9.448;2024-03-08T15:18:24;12.60;43.50
85036;DHT22;75357;49.780;9.448;2024-03-08T15:20:59;12.70;42.50
85036;DHT22;75357;49.780;9.448;2024-03-08T15:23:28;12.60;42.10
85036;DHT22;75357;49.780;9.448;2024-03-08T15:25:56;12.70;41.50
85036;DHT22;75357;49.780;9.448;2024-03-08T15:28:25;12.70;41.70
85036;DHT22;75357;49.780;9.448;2024-03-08T15:31:03;12.70;40.60
85036;DHT22;75357;49.780;9.448;2024-03-08T15:33:35;12.50;40.00
85036;DHT22;75357;49.780;9.448;2024-03-08T15:36:10;12.50;40.50
85036;DHT22;75357;49.780;9.448;2024-03-08T15:38:41;12.50;40.00
85036;DHT22;75357;49.780;9.448;2024-03-08T15:41:10;12.40;40.30
85036;DHT22;75357;49.780;9.448;2024-03-08T15:43:40;12.50;40.80
85036;DHT22;75357;49.780;9.448;2024-03-08T15:46:09;12.50;41.00
85036;DHT22;75357;49.780;9.448;2024-03-08T15:48:38;12.50;40.80
85036;DHT22;75357;49.780;9.448;2024-03-08T15:51:10;12.50;41.10
85036;DHT22;75357;49.780;9.448;2024-03-08T15:53:40;12.50;41.50
85036;DHT22;75357;49.780;9.448;2024-03-08T15:56:08;12.60;41.80
85036;DHT22;75357;49.780;9.448;2024-03-08T15:58:36;12.50;42.00